Dunbarton, NH

5:50 AM EDT on March 31, 2015 (GMT -0400)
Black Brook Road | | Change Station
CLOSE
Current Station
Personal Weather Station
Location: Goffstown, NH
Elevation: 602 ft
Nearby Weather Stations

Elev 602 ft 43.06 °N, 71.58 °W | Updated 3 minutes ago

Partly Cloudy
Partly Cloudy
27.8 °F
Feels Like 28 °F
N
0.0
Wind Variable Wind from North
Gusts 2.0 mph

Today
High -- | Low -- °F
--% Chance of Precip.
Yesterday
High -- | Low -- °F
Precip. -- in
6:30 AM 7:11 PM
Waxing Gibbous, 86% visible
Pressure 29.69 in
Visibility 10.0 miles
Clouds Scattered Clouds 4100 ft
Scattered Clouds 4800 ft
Windchill 28 °F
Dew Point 25 °F
Humidity 88%
Rainfall 0.00 in
Snow Depth Not available.
UV 0 out of 12
Pollen 2.00 out of 12
Air Quality Not available.
Flu Activity Not available.
METAR KCON 310851Z AUTO 31004KT 10SM SCT041 SCT048 01/M04 A2968 RMK AO2 SLP054 T00111039 53003

More Conditions Fewer Conditions

Pressure 29.69 in
Visibility 10.0 miles
Clouds Scattered Clouds 4100 ft
Scattered Clouds 4800 ft
Windchill 28 °F
Dew Point 25 °F
Humidity 88%
Rainfall 0.00 in
Snow Depth Not available.
UV 0 out of 12
Pollen 2.00 out of 12
Air Quality Not available.
Flu Activity Not available.
METAR KCON 310851Z AUTO 31004KT 10SM SCT041 SCT048 01/M04 A2968 RMK AO2 SLP054 T00111039 53003

More Conditions Fewer Conditions

10-Day Weather Forecast

Almanac

Astronomy

Mar. 31, 2015 Rise Set
Actual Time
Civil Twilight
Nautical Twilight
Astronomical Twilight
Moon
Length of Visible Light
Length of Day
Tomorrow will be .
, % of the Moon is Illuminated

Today's Extremes

State Highs State Lows

Community

WunderPhotos

Upload Photos

1,809,733 photos uploaded!

WunderBlogs® & News

Nearby

Air Quality

  Air Quality AQ Index Pollutant
Not available.

Snow Depth

Station Depth Elevation

Earthquake Activity

City Distance Mag. Time & Date
Minimum magnitude displayed is 2.5.

Coastal Water Temperatures

Place Temperature

Stations

Nearby Weather Stations

Station Location Temp. Windchill Dew Point Humidity Wind Precip. Elev Updated Type